sensor_id;sensor_type;location;lat;lon;timestamp;pressure;altitude;pressure_sealevel;temperature;humidity
69257;BME280;56376;53.356;-1.748;2023-02-28T00:01:31;101370.25;;;5.08;100.00
69257;BME280;56376;53.356;-1.748;2023-02-28T00:03:57;101378.88;;;5.07;100.00
69257;BME280;56376;53.356;-1.748;2023-02-28T00:06:23;101377.16;;;5.07;100.00
69257;BME280;56376;53.356;-1.748;2023-02-28T00:08:49;101368.44;;;5.02;100.00
69257;BME280;56376;53.356;-1.748;2023-02-28T00:11:15;101383.03;;;4.97;100.00
69257;BME280;56376;53.356;-1.748;2023-02-28T00:13:44;101385.59;;;4.95;100.00
69257;BME280;56376;53.356;-1.748;2023-02-28T00:16:19;101377.81;;;4.94;100.00
69257;BME280;56376;53.356;-1.748;2023-02-28T00:18:45;101387.31;;;4.95;100.00
69257;BME280;56376;53.356;-1.748;2023-02-28T00:21:13;101386.34;;;4.87;100.00
69257;BME280;56376;53.356;-1.748;2023-02-28T00:23:38;101378.56;;;4.87;100.00
69257;BME280;56376;53.356;-1.748;2023-02-28T00:26:04;101377.72;;;4.88;100.00
69257;BME280;56376;53.356;-1.748;2023-02-28T00:28:29;101383.78;;;4.90;100.00
69257;BME280;56376;53.356;-1.748;2023-02-28T00:30:55;101377.66;;;4.85;100.00
69257;BME280;56376;53.356;-1.748;2023-02-28T00:33:22;101388.94;;;4.87;100.00
69257;BME280;56376;53.356;-1.748;2023-02-28T00:35:47;101385.44;;;4.85;100.00
69257;BME280;56376;53.356;-1.748;2023-02-28T00:38:14;101390.66;;;4.88;100.00
69257;BME280;56376;53.356;-1.748;2023-02-28T00:40:40;101389.78;;;4.87;100.00
69257;BME280;56376;53.356;-1.748;2023-02-28T00:43:05;101392.47;;;4.92;100.00
69257;BME280;56376;53.356;-1.748;2023-02-28T00:45:31;101382.88;;;4.88;100.00
69257;BME280;56376;53.356;-1.748;2023-02-28T00:47:56;101385.44;;;4.85;100.00
69257;BME280;56376;53.356;-1.748;2023-02-28T00:50:22;101395.78;;;4.85;100.00
69257;BME280;56376;53.356;-1.748;2023-02-28T00:52:47;101394.06;;;4.85;100.00
69257;BME280;56376;53.356;-1.748;2023-02-28T00:55:13;101394.06;;;4.85;100.00
69257;BME280;56376;53.356;-1.748;2023-02-28T00:57:38;101394.09;;;4.87;100.00
69257;BME280;56376;53.356;-1.748;2023-02-28T01:00:04;101390.63;;;4.85;100.00
69257;BME280;56376;53.356;-1.748;2023-02-28T01:02:30;101394.06;;;4.85;100.00
69257;BME280;56376;53.356;-1.748;2023-02-28T01:04:56;101392.34;;;4.86;100.00
69257;BME280;56376;53.356;-1.748;2023-02-28T01:07:22;101394.97;;;4.87;100.00
69257;BME280;56376;53.356;-1.748;2023-02-28T01:09:48;101400.16;;;4.89;100.00
69257;BME280;56376;53.356;-1.748;2023-02-28T01:12:14;101402.75;;;4.89;100.00
69257;BME280;56376;53.356;-1.748;2023-02-28T01:14:40;101389.75;;;4.86;100.00
69257;BME280;56376;53.356;-1.748;2023-02-28T01:17:05;101397.53;;;4.86;100.00
69257;BME280;56376;53.356;-1.748;2023-02-28T01:19:31;101389.72;;;4.83;100.00
69257;BME280;56376;53.356;-1.748;2023-02-28T01:22:00;101385.41;;;4.83;100.00
69257;BME280;56376;53.356;-1.748;2023-02-28T01:24:26;101391.44;;;4.84;100.00
69257;BME280;56376;53.356;-1.748;2023-02-28T01:26:51;101397.47;;;4.83;100.00
69257;BME280;56376;53.356;-1.748;2023-02-28T01:29:16;101392.34;;;4.86;100.00
69257;BME280;56376;53.356;-1.748;2023-02-28T01:31:42;101385.41;;;4.83;100.00
69257;BME280;56376;53.356;-1.748;2023-02-28T01:34:07;101386.22;;;4.81;100.00
69257;BME280;56376;53.356;-1.748;2023-02-28T01:36:32;101389.72;;;4.83;100.00
69257;BME280;56376;53.356;-1.748;2023-02-28T01:38:58;101394.03;;;4.84;100.00
69257;BME280;56376;53.356;-1.748;2023-02-28T01:41:28;101393.16;;;4.82;100.00
69257;BME280;56376;53.356;-1.748;2023-02-28T01:46:19;101385.25;;;4.74;100.00
69257;BME280;56376;53.356;-1.748;2023-02-28T01:49:15;101389.63;;;4.76;100.00
69257;BME280;56376;53.356;-1.748;2023-02-28T01:54:14;101389.56;;;4.75;100.00
69257;BME280;56376;53.356;-1.748;2023-02-28T01:56:44;101390.41;;;4.72;100.00
69257;BME280;56376;53.356;-1.748;2023-02-28T01:59:12;101391.25;;;4.71;100.00
69257;BME280;56376;53.356;-1.748;2023-02-28T02:01:39;101389.53;;;4.73;100.00
69257;BME280;56376;53.356;-1.748;2023-02-28T02:04:05;101393.03;;;4.74;100.00
69257;BME280;56376;53.356;-1.748;2023-02-28T02:06:43;101388.72;;;4.74;100.00
69257;BME280;56376;53.356;-1.748;2023-02-28T02:09:10;101396.50;;;4.76;100.00
69257;BME280;56376;53.356;-1.748;2023-02-28T02:11:36;101382.66;;;4.74;100.00
69257;BME280;56376;53.356;-1.748;2023-02-28T02:24:43;101393.06;;;4.77;100.00
69257;BME280;56376;53.356;-1.748;2023-02-28T02:29:51;101387.94;;;4.80;100.00
69257;BME280;56376;53.356;-1.748;2023-02-28T02:35:11;101382.69;;;4.75;100.00
69257;BME280;56376;53.356;-1.748;2023-02-28T02:37:59;101388.72;;;4.76;100.00
69257;BME280;56376;53.356;-1.748;2023-02-28T02:40:46;101402.56;;;4.76;100.00
69257;BME280;56376;53.356;-1.748;2023-02-28T02:45:56;101393.97;;;4.81;100.00
69257;BME280;56376;53.356;-1.748;2023-02-28T02:48:27;101389.66;;;4.80;100.00
69257;BME280;56376;53.356;-1.748;2023-02-28T02:50:57;101384.38;;;4.73;100.00
69257;BME280;56376;53.356;-1.748;2023-02-28T02:53:33;101393.03;;;4.74;100.00
69257;BME280;56376;53.356;-1.748;2023-02-28T02:56:01;101392.13;;;4.73;100.00
69257;BME280;56376;53.356;-1.748;2023-02-28T02:58:35;101393.03;;;4.74;100.00
69257;BME280;56376;53.356;-1.748;2023-02-28T03:01:07;101386.13;;;4.74;100.00
69257;BME280;56376;53.356;-1.748;2023-02-28T03:03:35;101389.63;;;4.76;100.00
69257;BME280;56376;53.356;-1.748;2023-02-28T03:06:01;101391.31;;;4.76;100.00
69257;BME280;56376;53.356;-1.748;2023-02-28T03:08:29;101387.03;;;4.76;100.00
69257;BME280;56376;53.356;-1.748;2023-02-28T03:11:00;101387.03;;;4.76;100.00
69257;BME280;56376;53.356;-1.748;2023-02-28T03:18:54;101381.00;;;4.77;100.00
69257;BME280;56376;53.356;-1.748;2023-02-28T03:21:26;101385.31;;;4.78;100.00
69257;BME280;56376;53.356;-1.748;2023-02-28T03:26:26;101380.94;;;4.76;100.00
69257;BME280;56376;53.356;-1.748;2023-02-28T03:31:58;101377.50;;;4.75;100.00
69257;BME280;56376;53.356;-1.748;2023-02-28T03:34:38;101384.44;;;4.76;100.00
69257;BME280;56376;53.356;-1.748;2023-02-28T03:37:10;101375.78;;;4.74;100.00
69257;BME280;56376;53.356;-1.748;2023-02-28T03:39:40;101380.00;;;4.71;100.00
69257;BME280;56376;53.356;-1.748;2023-02-28T03:42:35;101381.72;;;4.69;100.00
69257;BME280;56376;53.356;-1.748;2023-02-28T03:45:10;101385.19;;;4.69;100.00
69257;BME280;56376;53.356;-1.748;2023-02-28T03:47:53;101389.44;;;4.67;100.00
69257;BME280;56376;53.356;-1.748;2023-02-28T03:53:04;101388.53;;;4.65;100.00
69257;BME280;56376;53.356;-1.748;2023-02-28T03:55:39;101400.66;;;4.66;100.00
69257;BME280;56376;53.356;-1.748;2023-02-28T03:58:32;101397.16;;;4.64;100.00
69257;BME280;56376;53.356;-1.748;2023-02-28T04:01:07;101390.22;;;4.63;100.00
69257;BME280;56376;53.356;-1.748;2023-02-28T04:03:36;101395.41;;;4.63;100.00
69257;BME280;56376;53.356;-1.748;2023-02-28T04:06:02;101389.34;;;4.61;100.00
69257;BME280;56376;53.356;-1.748;2023-02-28T04:08:28;101388.44;;;4.59;100.00
69257;BME280;56376;53.356;-1.748;2023-02-28T04:10:59;101390.19;;;4.60;100.00
69257;BME280;56376;53.356;-1.748;2023-02-28T04:13:26;101388.44;;;4.59;100.00
69257;BME280;56376;53.356;-1.748;2023-02-28T04:15:51;101386.72;;;4.60;100.00
69257;BME280;56376;53.356;-1.748;2023-02-28T04:18:17;101386.75;;;4.61;100.00
69257;BME280;56376;53.356;-1.748;2023-02-28T04:20:42;101388.47;;;4.61;100.00
69257;BME280;56376;53.356;-1.748;2023-02-28T04:23:07;101379.81;;;4.59;100.00
69257;BME280;56376;53.356;-1.748;2023-02-28T04:25:33;101385.88;;;4.59;100.00
69257;BME280;56376;53.356;-1.748;2023-02-28T04:27:58;101389.31;;;4.60;100.00
69257;BME280;56376;53.356;-1.748;2023-02-28T04:30:23;101389.31;;;4.60;100.00
69257;BME280;56376;53.356;-1.748;2023-02-28T04:32:49;101394.44;;;4.58;100.00
69257;BME280;56376;53.356;-1.748;2023-02-28T04:35:14;101397.03;;;4.57;100.00
69257;BME280;56376;53.356;-1.748;2023-02-28T04:37:40;101389.22;;;4.55;100.00
69257;BME280;56376;53.356;-1.748;2023-02-28T04:40:06;101398.72;;;4.54;100.00
69257;BME280;56376;53.356;-1.748;2023-02-28T04:42:32;101400.44;;;4.54;100.00
69257;BME280;56376;53.356;-1.748;2023-02-28T04:45:02;101398.69;;;4.53;100.00
69257;BME280;56376;53.356;-1.748;2023-02-28T04:47:27;101401.25;;;4.53;100.00
69257;BME280;56376;53.356;-1.748;2023-02-28T04:49:53;101400.44;;;4.54;100.00
69257;BME280;56376;53.356;-1.748;2023-02-28T04:52:18;101400.44;;;4.54;100.00
69257;BME280;56376;53.356;-1.748;2023-02-28T04:54:44;101407.34;;;4.55;100.00
69257;BME280;56376;53.356;-1.748;2023-02-28T04:57:10;101402.16;;;4.55;100.00
69257;BME280;56376;53.356;-1.748;2023-02-28T04:59:35;101400.47;;;4.57;100.00
69257;BME280;56376;53.356;-1.748;2023-02-28T05:02:01;101404.81;;;4.58;100.00
69257;BME280;56376;53.356;-1.748;2023-02-28T05:04:32;101394.50;;;4.60;100.00
69257;BME280;56376;53.356;-1.748;2023-02-28T05:06:59;101402.22;;;4.58;100.00
69257;BME280;56376;53.356;-1.748;2023-02-28T05:09:25;101394.44;;;4.58;100.00
69257;BME280;56376;53.356;-1.748;2023-02-28T05:11:50;101387.59;;;4.59;100.00
69257;BME280;56376;53.356;-1.748;2023-02-28T05:14:16;101388.47;;;4.61;100.00
69257;BME280;56376;53.356;-1.748;2023-02-28T05:16:41;101385.88;;;4.59;100.00
69257;BME280;56376;53.356;-1.748;2023-02-28T05:19:07;101390.97;;;4.56;100.00
69257;BME280;56376;53.356;-1.748;2023-02-28T05:21:38;101393.59;;;4.58;100.00
69257;BME280;56376;53.356;-1.748;2023-02-28T05:24:06;101405.66;;;4.57;100.00
69257;BME280;56376;53.356;-1.748;2023-02-28T05:26:35;101389.28;;;4.57;100.00
69257;BME280;56376;53.356;-1.748;2023-02-28T05:29:01;101394.44;;;4.58;100.00
69257;BME280;56376;53.356;-1.748;2023-02-28T05:31:27;101397.03;;;4.57;100.00
69257;BME280;56376;53.356;-1.748;2023-02-28T05:33:52;101391.84;;;4.57;100.00
69257;BME280;56376;53.356;-1.748;2023-02-28T05:36:18;101397.03;;;4.57;100.00
69257;BME280;56376;53.356;-1.748;2023-02-28T05:38:46;101383.19;;;4.56;100.00
69257;BME280;56376;53.356;-1.748;2023-02-28T05:41:11;101387.50;;;4.55;100.00
69257;BME280;56376;53.356;-1.748;2023-02-28T05:43:37;101402.22;;;4.57;100.00
69257;BME280;56376;53.356;-1.748;2023-02-28T05:46:07;101398.72;;;4.56;100.00
69257;BME280;56376;53.356;-1.748;2023-02-28T05:48:35;101402.22;;;4.57;100.00
69257;BME280;56376;53.356;-1.748;2023-02-28T05:51:01;101400.47;;;4.57;100.00
69257;BME280;56376;53.356;-1.748;2023-02-28T05:53:27;101393.63;;;4.59;100.00
69257;BME280;56376;53.356;-1.748;2023-02-28T05:55:53;101398.72;;;4.56;100.00
69257;BME280;56376;53.356;-1.748;2023-02-28T05:58:19;101396.09;;;4.53;100.00
69257;BME280;56376;53.356;-1.748;2023-02-28T06:00:44;101403.84;;;4.53;100.00
69257;BME280;56376;53.356;-1.748;2023-02-28T06:03:10;101399.56;;;4.55;100.00
69257;BME280;56376;53.356;-1.748;2023-02-28T06:05:36;101400.44;;;4.55;100.00
69257;BME280;56376;53.356;-1.748;2023-02-28T06:08:01;101403.91;;;4.56;100.00
69257;BME280;56376;53.356;-1.748;2023-02-28T06:10:26;101399.63;;;4.58;100.00
69257;BME280;56376;53.356;-1.748;2023-02-28T06:12:52;101398.72;;;4.54;100.00
69257;BME280;56376;53.356;-1.748;2023-02-28T06:15:17;101408.19;;;4.54;100.00
69257;BME280;56376;53.356;-1.748;2023-02-28T06:17:43;101404.72;;;4.53;100.00
69257;BME280;56376;53.356;-1.748;2023-02-28T06:20:10;101397.75;;;4.49;100.00
69257;BME280;56376;53.356;-1.748;2023-02-28T06:22:38;101400.31;;;4.48;100.00
69257;BME280;56376;53.356;-1.748;2023-02-28T06:25:05;101396.84;;;4.47;100.00
69257;BME280;56376;53.356;-1.748;2023-02-28T06:27:32;101393.44;;;4.50;100.00
69257;BME280;56376;53.356;-1.748;2023-02-28T06:29:58;101404.72;;;4.52;100.00
69257;BME280;56376;53.356;-1.748;2023-02-28T06:32:23;101405.53;;;4.49;100.00
69257;BME280;56376;53.356;-1.748;2023-02-28T06:34:49;101412.44;;;4.50;100.00
69257;BME280;56376;53.356;-1.748;2023-02-28T06:37:16;101405.53;;;4.49;100.00
69257;BME280;56376;53.356;-1.748;2023-02-28T06:39:41;101407.25;;;4.50;100.00
69257;BME280;56376;53.356;-1.748;2023-02-28T06:42:06;101418.47;;;4.51;100.00
69257;BME280;56376;53.356;-1.748;2023-02-28T06:44:32;101413.25;;;4.48;100.00
69257;BME280;56376;53.356;-1.748;2023-02-28T06:47:01;101418.41;;;4.48;100.00
69257;BME280;56376;53.356;-1.748;2023-02-28T06:49:31;101413.25;;;4.48;100.00
69257;BME280;56376;53.356;-1.748;2023-02-28T06:51:57;101422.78;;;4.49;100.00
69257;BME280;56376;53.356;-1.748;2023-02-28T06:54:22;101423.63;;;4.49;100.00
69257;BME280;56376;53.356;-1.748;2023-02-28T06:56:48;101426.22;;;4.51;100.00
69257;BME280;56376;53.356;-1.748;2023-02-28T06:59:14;101425.41;;;4.52;100.00
69257;BME280;56376;53.356;-1.748;2023-02-28T07:01:39;101428.88;;;4.52;100.00
69257;BME280;56376;53.356;-1.748;2023-02-28T07:04:05;101438.41;;;4.55;100.00
69257;BME280;56376;53.356;-1.748;2023-02-28T07:06:31;101434.03;;;4.52;100.00
69257;BME280;56376;53.356;-1.748;2023-02-28T07:08:56;101423.66;;;4.51;100.00
69257;BME280;56376;53.356;-1.748;2023-02-28T07:11:25;101437.50;;;4.53;100.00
69257;BME280;56376;53.356;-1.748;2023-02-28T07:13:51;101438.34;;;4.53;100.00
69257;BME280;56376;53.356;-1.748;2023-02-28T07:16:17;101429.78;;;4.54;100.00
69257;BME280;56376;53.356;-1.748;2023-02-28T07:18:43;101440.19;;;4.58;100.00
69257;BME280;56376;53.356;-1.748;2023-02-28T07:21:10;101447.97;;;4.59;100.00
69257;BME280;56376;53.356;-1.748;2023-02-28T07:23:36;101445.38;;;4.59;100.00
69257;BME280;56376;53.356;-1.748;2023-02-28T07:26:03;101445.41;;;4.61;100.00
69257;BME280;56376;53.356;-1.748;2023-02-28T07:28:29;101442.81;;;4.61;100.00
69257;BME280;56376;53.356;-1.748;2023-02-28T07:30:55;101446.28;;;4.61;100.00
69257;BME280;56376;53.356;-1.748;2023-02-28T07:33:20;101453.16;;;4.59;100.00
69257;BME280;56376;53.356;-1.748;2023-02-28T07:35:45;101461.78;;;4.60;100.00
69257;BME280;56376;53.356;-1.748;2023-02-28T07:38:11;101460.88;;;4.58;100.00
69257;BME280;56376;53.356;-1.748;2023-02-28T07:40:39;101448.75;;;4.55;100.00
69257;BME280;56376;53.356;-1.748;2023-02-28T07:43:04;101451.34;;;4.55;100.00
69257;BME280;56376;53.356;-1.748;2023-02-28T07:45:30;101450.56;;;4.59;100.00
69257;BME280;56376;53.356;-1.748;2023-02-28T07:47:57;101454.78;;;4.54;100.00
69257;BME280;56376;53.356;-1.748;2023-02-28T07:50:23;101447.84;;;4.53;100.00
69257;BME280;56376;53.356;-1.748;2023-02-28T07:52:48;101450.47;;;4.54;100.00
69257;BME280;56376;53.356;-1.748;2023-02-28T07:55:14;101459.91;;;4.52;100.00
69257;BME280;56376;53.356;-1.748;2023-02-28T07:57:40;101452.22;;;4.55;100.00
69257;BME280;56376;53.356;-1.748;2023-02-28T08:00:10;101457.38;;;4.54;100.00
69257;BME280;56376;53.356;-1.748;2023-02-28T08:02:37;101447.84;;;4.53;100.00
69257;BME280;56376;53.356;-1.748;2023-02-28T08:05:04;101455.56;;;4.50;100.00
69257;BME280;56376;53.356;-1.748;2023-02-28T08:07:29;101456.41;;;4.49;100.00
69257;BME280;56376;53.356;-1.748;2023-02-28T08:09:54;101446.94;;;4.51;100.00
69257;BME280;56376;53.356;-1.748;2023-02-28T08:12:20;101455.63;;;4.53;100.00
69257;BME280;56376;53.356;-1.748;2023-02-28T08:14:45;101449.59;;;4.54;100.00
69257;BME280;56376;53.356;-1.748;2023-02-28T08:17:11;101453.94;;;4.55;100.00
69257;BME280;56376;53.356;-1.748;2023-02-28T08:19:36;101447.06;;;4.57;100.00
69257;BME280;56376;53.356;-1.748;2023-02-28T08:22:02;101450.56;;;4.59;100.00
69257;BME280;56376;53.356;-1.748;2023-02-28T08:24:28;101454.06;;;4.61;100.00
69257;BME280;56376;53.356;-1.748;2023-02-28T08:26:53;101448.78;;;4.57;100.00
69257;BME280;56376;53.356;-1.748;2023-02-28T08:29:19;101453.16;;;4.59;100.00
69257;BME280;56376;53.356;-1.748;2023-02-28T08:31:44;101459.16;;;4.58;100.00
69257;BME280;56376;53.356;-1.748;2023-02-28T08:34:12;101457.47;;;4.59;100.00
69257;BME280;56376;53.356;-1.748;2023-02-28T08:36:38;101447.13;;;4.60;100.00
69257;BME280;56376;53.356;-1.748;2023-02-28T08:39:05;101456.66;;;4.61;100.00
69257;BME280;56376;53.356;-1.748;2023-02-28T08:41:31;101448.00;;;4.61;100.00
69257;BME280;56376;53.356;-1.748;2023-02-28T08:43:56;101454.75;;;4.52;100.00
69257;BME280;56376;53.356;-1.748;2023-02-28T08:46:22;101469.31;;;4.47;100.00
69257;BME280;56376;53.356;-1.748;2023-02-28T08:48:51;101473.63;;;4.48;100.00
69257;BME280;56376;53.356;-1.748;2023-02-28T08:51:17;101471.03;;;4.47;100.00
69257;BME280;56376;53.356;-1.748;2023-02-28T08:53:46;101458.97;;;4.47;100.00
69257;BME280;56376;53.356;-1.748;2023-02-28T08:56:15;101466.69;;;4.46;100.00
69257;BME280;56376;53.356;-1.748;2023-02-28T08:58:42;101471.03;;;4.48;100.00
69257;BME280;56376;53.356;-1.748;2023-02-28T09:03:41;101459.88;;;4.49;100.00
69257;BME280;56376;53.356;-1.748;2023-02-28T09:06:08;101464.22;;;4.52;100.00
69257;BME280;56376;53.356;-1.748;2023-02-28T09:08:34;101466.88;;;4.55;100.00
69257;BME280;56376;53.356;-1.748;2023-02-28T09:11:00;101470.41;;;4.60;100.00
69257;BME280;56376;53.356;-1.748;2023-02-28T09:13:27;101474.81;;;4.66;100.00
69257;BME280;56376;53.356;-1.748;2023-02-28T09:15:54;101473.03;;;4.62;100.00
69257;BME280;56376;53.356;-1.748;2023-02-28T09:18:22;101473.06;;;4.63;100.00
69257;BME280;56376;53.356;-1.748;2023-02-28T09:20:47;101468.69;;;4.61;100.00
69257;BME280;56376;53.356;-1.748;2023-02-28T09:23:13;101480.81;;;4.62;100.00
69257;BME280;56376;53.356;-1.748;2023-02-28T09:25:46;101484.31;;;4.65;100.00
69257;BME280;56376;53.356;-1.748;2023-02-28T09:28:12;101475.72;;;4.66;100.00
69257;BME280;56376;53.356;-1.748;2023-02-28T09:30:37;101483.50;;;4.66;100.00
69257;BME280;56376;53.356;-1.748;2023-02-28T09:33:03;101468.84;;;4.68;100.00
69257;BME280;56376;53.356;-1.748;2023-02-28T09:35:29;101472.34;;;4.70;100.00
69257;BME280;56376;53.356;-1.748;2023-02-28T09:37:56;101474.09;;;4.73;100.00
69257;BME280;56376;53.356;-1.748;2023-02-28T09:40:24;101477.59;;;4.75;100.00
69257;BME280;56376;53.356;-1.748;2023-02-28T09:42:55;101473.34;;;4.78;100.00
69257;BME280;56376;53.356;-1.748;2023-02-28T09:45:28;101480.28;;;4.81;100.00
69257;BME280;56376;53.356;-1.748;2023-02-28T09:47:56;101480.34;;;4.83;100.00
69257;BME280;56376;53.356;-1.748;2023-02-28T09:50:36;101475.16;;;4.83;100.00
69257;BME280;56376;53.356;-1.748;2023-02-28T09:53:06;101486.41;;;4.85;100.00
69257;BME280;56376;53.356;-1.748;2023-02-28T09:55:45;101486.41;;;4.85;100.00
69257;BME280;56376;53.356;-1.748;2023-02-28T09:58:28;101484.72;;;4.87;100.00
69257;BME280;56376;53.356;-1.748;2023-02-28T10:03:43;101494.38;;;4.94;100.00
69257;BME280;56376;53.356;-1.748;2023-02-28T10:06:17;101497.00;;;4.98;100.00
69257;BME280;56376;53.356;-1.748;2023-02-28T10:09:25;101496.31;;;5.09;100.00
69257;BME280;56376;53.356;-1.748;2023-02-28T10:11:56;101498.13;;;5.13;100.00
69257;BME280;56376;53.356;-1.748;2023-02-28T10:14:27;101495.69;;;5.20;100.00
69257;BME280;56376;53.356;-1.748;2023-02-28T10:17:14;101498.34;;;5.25;100.00
69257;BME280;56376;53.356;-1.748;2023-02-28T10:19:54;101507.91;;;5.28;100.00
69257;BME280;56376;53.356;-1.748;2023-02-28T10:22:34;101509.59;;;5.26;100.00
69257;BME280;56376;53.356;-1.748;2023-02-28T10:25:23;101498.31;;;5.24;100.00
69257;BME280;56376;53.356;-1.748;2023-02-28T10:27:50;101506.13;;;5.25;100.00
69257;BME280;56376;53.356;-1.748;2023-02-28T10:30:18;101503.50;;;5.24;100.00
69257;BME280;56376;53.356;-1.748;2023-02-28T10:32:49;101504.41;;;5.24;100.00
69257;BME280;56376;53.356;-1.748;2023-02-28T10:35:17;101500.97;;;5.28;100.00
69257;BME280;56376;53.356;-1.748;2023-02-28T10:37:47;101487.22;;;5.31;100.00
69257;BME280;56376;53.356;-1.748;2023-02-28T10:45:38;101487.66;;;5.57;100.00
69257;BME280;56376;53.356;-1.748;2023-02-28T10:50:50;101466.81;;;6.10;100.00
69257;BME280;56376;53.356;-1.748;2023-02-28T10:56:00;101475.78;;;6.35;100.00
69257;BME280;56376;53.356;-1.748;2023-02-28T10:58:32;101469.66;;;6.30;100.00
69257;BME280;56376;53.356;-1.748;2023-02-28T11:01:13;101473.00;;;6.21;100.00
69257;BME280;56376;53.356;-1.748;2023-02-28T11:03:39;101473.78;;;6.16;100.00
69257;BME280;56376;53.356;-1.748;2023-02-28T11:08:45;101479.47;;;5.92;100.00
69257;BME280;56376;53.356;-1.748;2023-02-28T11:11:11;101476.03;;;5.90;100.00
69257;BME280;56376;53.356;-1.748;2023-02-28T11:13:37;101486.44;;;5.93;100.00
69257;BME280;56376;53.356;-1.748;2023-02-28T11:16:08;101486.38;;;5.88;100.00
69257;BME280;56376;53.356;-1.748;2023-02-28T11:18:49;101491.41;;;5.79;100.00
69257;BME280;56376;53.356;-1.748;2023-02-28T11:21:19;101489.63;;;5.75;100.00
69257;BME280;56376;53.356;-1.748;2023-02-28T11:23:47;101473.94;;;5.66;100.00
69257;BME280;56376;53.356;-1.748;2023-02-28T11:26:14;101476.53;;;5.66;100.00
69257;BME280;56376;53.356;-1.748;2023-02-28T11:28:41;101476.50;;;5.62;100.00
69257;BME280;56376;53.356;-1.748;2023-02-28T11:36:23;101460.41;;;5.86;100.00
69257;BME280;56376;53.356;-1.748;2023-02-28T11:38:54;101456.25;;;5.95;100.00
69257;BME280;56376;53.356;-1.748;2023-02-28T11:47:47;101445.97;;;6.04;100.00
69257;BME280;56376;53.356;-1.748;2023-02-28T11:55:55;101437.47;;;6.16;100.00
69257;BME280;56376;53.356;-1.748;2023-02-28T12:01:28;101437.63;;;6.29;100.00
69257;BME280;56376;53.356;-1.748;2023-02-28T12:09:33;101416.78;;;6.22;100.00
69257;BME280;56376;53.356;-1.748;2023-02-28T12:15:36;101419.66;;;6.46;100.00
69257;BME280;56376;53.356;-1.748;2023-02-28T12:20:57;101415.47;;;6.58;100.00
69257;BME280;56376;53.356;-1.748;2023-02-28T12:29:28;101405.91;;;6.57;100.00
69257;BME280;56376;53.356;-1.748;2023-02-28T12:32:18;101403.34;;;6.60;100.00
69257;BME280;56376;53.356;-1.748;2023-02-28T12:34:54;101397.31;;;6.61;100.00
69257;BME280;56376;53.356;-1.748;2023-02-28T12:37:31;101399.81;;;6.55;100.00
69257;BME280;56376;53.356;-1.748;2023-02-28T12:40:06;101393.81;;;6.59;100.00
69257;BME280;56376;53.356;-1.748;2023-02-28T12:42:45;101401.63;;;6.62;100.00
69257;BME280;56376;53.356;-1.748;2023-02-28T12:45:25;101396.50;;;6.68;100.00
69257;BME280;56376;53.356;-1.748;2023-02-28T12:47:58;101384.38;;;6.65;100.00
69257;BME280;56376;53.356;-1.748;2023-02-28T12:50:26;101380.94;;;6.68;100.00
69257;BME280;56376;53.356;-1.748;2023-02-28T12:55:38;101368.00;;;6.77;100.00
69257;BME280;56376;53.356;-1.748;2023-02-28T12:58:18;101351.69;;;6.95;100.00
69257;BME280;56376;53.356;-1.748;2023-02-28T13:04:05;101352.66;;;7.08;100.00
69257;BME280;56376;53.356;-1.748;2023-02-28T13:09:37;101362.13;;;6.97;100.00
69257;BME280;56376;53.356;-1.748;2023-02-28T13:12:12;101348.22;;;6.94;100.00
69257;BME280;56376;53.356;-1.748;2023-02-28T13:14:39;101343.91;;;6.93;100.00
69257;BME280;56376;53.356;-1.748;2023-02-28T13:19:43;101340.44;;;6.94;100.00
69257;BME280;56376;53.356;-1.748;2023-02-28T13:22:35;101345.69;;;7.01;100.00
69257;BME280;56376;53.356;-1.748;2023-02-28T13:27:50;101336.16;;;7.01;100.00
69257;BME280;56376;53.356;-1.748;2023-02-28T13:36:09;101342.09;;;6.85;100.00
69257;BME280;56376;53.356;-1.748;2023-02-28T13:38:42;101344.66;;;6.82;100.00
69257;BME280;56376;53.356;-1.748;2023-02-28T13:46:36;101327.38;;;6.85;100.00
69257;BME280;56376;53.356;-1.748;2023-02-28T13:52:15;101329.03;;;6.77;100.00
69257;BME280;56376;53.356;-1.748;2023-02-28T14:08:50;101334.97;;;6.58;100.00
69257;BME280;56376;53.356;-1.748;2023-02-28T14:11:41;101329.81;;;6.67;100.00
69257;BME280;56376;53.356;-1.748;2023-02-28T14:14:08;101330.72;;;6.69;100.00
69257;BME280;56376;53.356;-1.748;2023-02-28T14:16:48;101321.22;;;6.72;100.00
69257;BME280;56376;53.356;-1.748;2023-02-28T14:27:34;101323.78;;;6.69;100.00
69257;BME280;56376;53.356;-1.748;2023-02-28T14:36:07;101329.91;;;6.75;100.00
69257;BME280;56376;53.356;-1.748;2023-02-28T14:41:17;101319.41;;;6.62;100.00
69257;BME280;56376;53.356;-1.748;2023-02-28T14:43:58;101314.19;;;6.58;100.00
69257;BME280;56376;53.356;-1.748;2023-02-28T14:46:30;101322.84;;;6.60;100.00
69257;BME280;56376;53.356;-1.748;2023-02-28T14:49:00;101329.75;;;6.56;100.00
69257;BME280;56376;53.356;-1.748;2023-02-28T14:51:26;101324.56;;;6.58;100.00
69257;BME280;56376;53.356;-1.748;2023-02-28T14:53:57;101327.13;;;6.53;100.00
69257;BME280;56376;53.356;-1.748;2023-02-28T14:56:27;101324.53;;;6.53;100.00
69257;BME280;56376;53.356;-1.748;2023-02-28T14:58:56;101313.16;;;6.42;100.00
69257;BME280;56376;53.356;-1.748;2023-02-28T15:01:23;101318.31;;;6.37;100.00
69257;BME280;56376;53.356;-1.748;2023-02-28T15:04:25;101317.50;;;6.44;100.00
69257;BME280;56376;53.356;-1.748;2023-02-28T15:07:13;101323.56;;;6.40;100.00
69257;BME280;56376;53.356;-1.748;2023-02-28T15:09:39;101307.09;;;6.41;100.00
69257;BME280;56376;53.356;-1.748;2023-02-28T15:12:05;101314.91;;;6.44;100.00
69257;BME280;56376;53.356;-1.748;2023-02-28T15:14:31;101319.28;;;6.50;100.00
69257;BME280;56376;53.356;-1.748;2023-02-28T15:17:01;101303.69;;;6.45;100.00
69257;BME280;56376;53.356;-1.748;2023-02-28T15:19:33;101296.78;;;6.49;100.00
69257;BME280;56376;53.356;-1.748;2023-02-28T15:22:04;101299.41;;;6.52;100.00
69257;BME280;56376;53.356;-1.748;2023-02-28T15:24:48;101291.66;;;6.54;100.00